Time;durP1;ratioP1;P1;durP2;ratioP2;P2;SDS_P1;SDS_P2;PMS_P1;PMS_P2;Temp;Humidity;BMP_temperature;BMP_pressure;BME280_temperature;BME280_humidity;BME280_pressure;Samples;Min_cycle;Max_cycle;Signal;HPM_P1;HPM_P2
2023/08/04 00:02:58;;;;;;;3.20;2.47;;;;;;;18.14;96.81;100486.53;6117914;29;20244;-66
2023/08/04 00:06:19;;;;;;;4.10;2.00;;;;;;;18.19;97.25;100484.91;6115183;28;20235;-67
2023/08/04 00:09:42;;;;;;;3.63;1.98;;;;;;;18.23;97.25;100496.31;6113025;28;20696;-67
2023/08/04 00:13:03;;;;;;;8.40;3.65;;;;;;;18.09;97.18;100499.91;6109170;29;20228;-66
2023/08/04 00:16:23;;;;;;;3.03;1.90;;;;;;;17.94;97.55;100501.88;6117102;29;20232;-65
2023/08/04 00:19:44;;;;;;;3.83;2.13;;;;;;;17.85;98.07;100513.91;6086256;28;20235;-67
2023/08/04 00:23:05;;;;;;;3.83;2.42;;;;;;;17.85;98.04;100513.91;6113516;29;20235;-67
2023/08/04 00:26:28;;;;;;;4.88;2.65;;;;;;;17.86;98.09;100521.03;6111179;29;20232;-66
2023/08/04 00:29:49;;;;;;;3.85;2.40;;;;;;;17.91;97.67;100532.25;6117443;29;20243;-66
2023/08/04 00:33:10;;;;;;;3.17;1.63;;;;;;;17.85;97.95;100533.00;6114231;29;20342;-68
2023/08/04 00:36:31;;;;;;;8.40;2.15;;;;;;;17.75;97.67;100529.75;6114001;29;20235;-67
2023/08/04 00:39:52;;;;;;;3.30;2.33;;;;;;;17.73;97.86;100531.81;6108556;29;20244;-67
2023/08/04 00:43:14;;;;;;;5.55;1.80;;;;;;;17.65;97.91;100529.19;6112005;29;20224;-66
2023/08/04 00:46:36;;;;;;;2.90;1.70;;;;;;;17.62;98.04;100535.03;6119315;29;20665;-66
2023/08/04 00:49:57;;;;;;;2.55;2.03;;;;;;;17.72;97.79;100533.69;6081696;29;20232;-68
2023/08/04 00:53:19;;;;;;;6.35;2.42;;;;;;;17.63;97.54;100537.53;6122679;29;20223;-67
2023/08/04 00:56:41;;;;;;;3.15;2.17;;;;;;;17.47;98.16;100538.56;6105819;29;20551;-67
2023/08/04 01:00:04;;;;;;;4.18;2.67;;;;;;;17.29;98.67;100548.16;6111280;29;20243;-67
2023/08/04 01:03:25;;;;;;;6.22;2.20;;;;;;;17.37;99.15;100551.66;6123060;28;20606;-67
2023/08/04 01:06:56;;;;;;;3.78;2.22;;;;;;;17.33;99.30;100552.22;6112845;29;20243;-67
2023/08/04 01:10:24;;;;;;;6.13;2.42;;;;;;;17.34;99.41;100553.88;6115976;29;20246;-67
2023/08/04 01:13:48;;;;;;;2.17;1.63;;;;;;;17.14;99.88;100552.75;6121463;29;20250;-67
2023/08/04 01:17:32;;;;;;;5.38;1.80;;;;;;;17.34;100.00;100564.78;6116422;29;20322;-67
2023/08/04 01:20:53;;;;;;;3.58;2.78;;;;;;;17.30;100.00;100558.03;6117357;29;20274;-66
2023/08/04 01:24:15;;;;;;;10.93;2.60;;;;;;;17.27;100.00;100556.50;6105136;28;22417;-67
2023/08/04 01:27:38;;;;;;;5.68;2.10;;;;;;;17.28;100.00;100557.34;6110848;29;20227;-66
2023/08/04 01:31:01;;;;;;;2.00;1.63;;;;;;;17.26;100.00;100562.16;6112578;29;20241;-66
2023/08/04 01:34:22;;;;;;;2.63;2.42;;;;;;;17.24;100.00;100564.22;6094862;29;20323;-66
2023/08/04 01:37:44;;;;;;;2.22;2.03;;;;;;;17.30;100.00;100560.75;6093164;28;20298;-67
2023/08/04 01:41:07;;;;;;;11.85;2.20;;;;;;;17.39;100.00;100562.34;6101199;29;20303;-66
2023/08/04 01:44:28;;;;;;;3.75;1.48;;;;;;;17.33;100.00;100558.50;6070988;29;20303;-67
2023/08/04 01:47:50;;;;;;;3.38;2.15;;;;;;;17.29;100.00;100572.69;6106460;29;20236;-67
2023/08/04 01:51:11;;;;;;;4.05;2.25;;;;;;;17.23;100.00;100582.44;6118767;28;20228;-67
2023/08/04 01:54:32;;;;;;;4.10;2.55;;;;;;;17.10;100.00;100582.25;6120141;28;21823;-66
2023/08/04 01:57:54;;;;;;;4.25;2.13;;;;;;;17.18;100.00;100590.34;6118461;29;20232;-67
2023/08/04 02:01:14;;;;;;;3.42;2.10;;;;;;;17.22;100.00;100596.25;6107525;29;20240;-66
2023/08/04 02:04:35;;;;;;;5.05;2.10;;;;;;;17.25;100.00;100604.06;6103333;29;20326;-66
2023/08/04 02:07:56;;;;;;;3.50;2.13;;;;;;;17.14;100.00;100610.81;6100754;29;20296;-67
2023/08/04 02:11:23;;;;;;;4.25;2.30;;;;;;;17.02;100.00;100615.00;6117547;29;20510;-66
2023/08/04 02:14:45;;;;;;;5.77;2.63;;;;;;;17.01;100.00;100617.91;6099049;29;20251;-67
2023/08/04 02:18:06;;;;;;;5.57;3.13;;;;;;;17.05;100.00;100619.22;6104009;28;20240;-67
2023/08/04 02:21:27;;;;;;;4.00;2.40;;;;;;;17.08;100.00;100627.06;6122631;28;20343;-66
2023/08/04 02:24:48;;;;;;;4.28;2.80;;;;;;;16.88;100.00;100621.25;6108233;29;20233;-66
2023/08/04 02:28:09;;;;;;;5.50;2.75;;;;;;;16.79;100.00;100635.97;6097286;28;20235;-67
2023/08/04 02:31:32;;;;;;;4.03;2.37;;;;;;;17.02;100.00;100635.97;6118036;29;20330;-67
2023/08/04 02:34:52;;;;;;;4.88;3.15;;;;;;;17.08;100.00;100641.53;6081689;29;20232;-67
2023/08/04 02:38:14;;;;;;;5.03;2.57;;;;;;;17.05;100.00;100641.88;6101205;29;20236;-67
2023/08/04 02:41:35;;;;;;;3.47;2.93;;;;;;;16.97;100.00;100644.69;6115755;29;20240;-67
2023/08/04 02:44:56;;;;;;;7.53;3.40;;;;;;;17.05;100.00;100650.03;6111285;29;20224;-66
2023/08/04 02:48:18;;;;;;;3.30;2.22;;;;;;;17.14;100.00;100648.09;6102173;29;20377;-67
2023/08/04 02:51:39;;;;;;;8.48;2.97;;;;;;;17.02;100.00;100650.41;6102706;29;20499;-67
2023/08/04 02:54:59;;;;;;;5.38;3.78;;;;;;;16.99;100.00;100655.38;6105211;29;20240;-67
2023/08/04 02:58:20;;;;;;;2.67;2.40;;;;;;;17.01;100.00;100664.22;6105536;28;20240;-66
2023/08/04 03:01:41;;;;;;;3.45;2.58;;;;;;;17.00;100.00;100667.97;6116518;29;20484;-66
2023/08/04 03:05:03;;;;;;;4.78;2.60;;;;;;;16.90;100.00;100678.28;6106691;29;20275;-67
2023/08/04 03:08:24;;;;;;;2.80;2.55;;;;;;;16.99;100.00;100669.00;6107987;29;20260;-67
2023/08/04 03:11:45;;;;;;;7.53;2.90;;;;;;;16.98;100.00;100678.22;6117231;29;20243;-67
2023/08/04 03:15:07;;;;;;;2.55;2.35;;;;;;;16.68;100.00;100685.41;6105533;29;20322;-66
2023/08/04 03:18:28;;;;;;;4.13;2.80;;;;;;;16.82;100.00;100689.19;6117837;28;20228;-66
2023/08/04 03:21:50;;;;;;;4.20;2.38;;;;;;;16.78;100.00;100697.75;6109574;28;20232;-67
2023/08/04 03:25:11;;;;;;;8.10;3.47;;;;;;;16.85;100.00;100703.31;6090644;29;20236;-66
2023/08/04 03:28:32;;;;;;;5.33;3.10;;;;;;;16.99;100.00;100704.41;6101945;29;20233;-66
2023/08/04 03:31:53;;;;;;;7.17;3.17;;;;;;;17.09;100.00;100703.13;6111415;28;20235;-65
2023/08/04 03:35:14;;;;;;;4.23;2.57;;;;;;;17.13;100.00;100711.78;6090449;29;20224;-67
2023/08/04 03:38:36;;;;;;;5.60;2.92;;;;;;;17.12;100.00;100710.94;6113575;29;20236;-67
2023/08/04 03:41:57;;;;;;;3.47;3.07;;;;;;;16.88;100.00;100710.25;6085317;29;20536;-67
2023/08/04 03:45:17;;;;;;;8.53;3.10;;;;;;;17.10;100.00;100713.00;6114831;29;20240;-66
2023/08/04 03:48:38;;;;;;;2.73;2.53;;;;;;;17.03;100.00;100708.44;6114228;28;20231;-66
2023/08/04 03:51:59;;;;;;;9.80;3.40;;;;;;;17.08;100.00;100714.22;6111085;28;20267;-65
2023/08/04 03:55:21;;;;;;;4.93;3.08;;;;;;;17.04;100.00;100710.16;6099392;29;20239;-66
2023/08/04 03:58:42;;;;;;;3.28;2.00;;;;;;;17.18;100.00;100714.81;6098016;29;20614;-67
2023/08/04 04:02:03;;;;;;;7.30;3.00;;;;;;;17.03;100.00;100722.94;6112818;29;21324;-66
2023/08/04 04:05:24;;;;;;;1.90;1.70;;;;;;;17.23;100.00;100715.94;6104896;28;20220;-66
2023/08/04 04:08:46;;;;;;;2.33;2.13;;;;;;;17.11;100.00;100720.13;6107069;28;20243;-66
2023/08/04 04:12:09;;;;;;;3.93;2.63;;;;;;;17.25;100.00;100716.59;6115965;29;20232;-66
2023/08/04 04:15:30;;;;;;;3.72;2.97;;;;;;;17.10;100.00;100720.34;6080841;29;20236;-65
2023/08/04 04:18:50;;;;;;;8.20;3.33;;;;;;;17.18;100.00;100722.97;6089804;29;20239;-66
2023/08/04 04:22:12;;;;;;;4.47;2.97;;;;;;;17.11;100.00;100722.00;6111924;28;20227;-67
2023/08/04 04:25:32;;;;;;;4.35;3.53;;;;;;;17.07;100.00;100728.84;6110091;28;20679;-66
2023/08/04 04:28:55;;;;;;;3.47;2.27;;;;;;;16.91;100.00;100729.81;6103944;29;20236;-66
2023/08/04 04:32:15;;;;;;;5.83;2.93;;;;;;;16.86;100.00;100734.97;6115448;29;20255;-65
2023/08/04 04:35:36;;;;;;;3.90;2.60;;;;;;;16.95;100.00;100743.91;6097545;28;20537;-67
2023/08/04 04:38:56;;;;;;;5.05;3.40;;;;;;;16.92;100.00;100757.91;6099220;28;20240;-66
2023/08/04 04:42:17;;;;;;;4.77;2.93;;;;;;;16.62;100.00;100755.03;6113894;29;20231;-66
2023/08/04 04:45:49;;;;;;;7.37;3.17;;;;;;;16.78;100.00;100757.66;6097356;29;20696;-66
2023/08/04 04:49:09;;;;;;;2.80;2.60;;;;;;;16.89;100.00;100758.25;6110197;28;20236;-66
2023/08/04 04:52:32;;;;;;;5.50;2.60;;;;;;;16.63;100.00;100764.00;6111161;29;20259;-66
2023/08/04 04:55:52;;;;;;;5.77;2.73;;;;;;;16.84;100.00;100761.53;6116201;29;20330;-65
2023/08/04 04:59:13;;;;;;;3.43;2.97;;;;;;;16.73;100.00;100772.81;6105685;28;20260;-65
2023/08/04 05:02:35;;;;;;;4.00;2.97;;;;;;;16.97;100.00;100760.94;6108356;29;20327;-66
2023/08/04 05:05:56;;;;;;;5.33;2.40;;;;;;;16.99;100.00;100783.38;6111446;29;20248;-66
2023/08/04 05:09:17;;;;;;;4.20;2.60;;;;;;;16.82;100.00;100777.19;6096791;29;20248;-67
2023/08/04 05:12:38;;;;;;;5.70;2.93;;;;;;;17.01;100.00;100765.84;6115188;29;20353;-66
2023/08/04 05:15:59;;;;;;;2.97;2.63;;;;;;;16.99;100.00;100767.03;6109755;28;20554;-66
2023/08/04 05:19:21;;;;;;;4.30;3.00;;;;;;;17.12;100.00;100778.19;6103850;29;20237;-66
2023/08/04 05:22:43;;;;;;;4.33;2.57;;;;;;;17.26;100.00;100781.00;6113225;28;20232;-65
2023/08/04 05:26:03;;;;;;;3.25;2.95;;;;;;;17.18;100.00;100778.34;6112344;28;20256;-65
2023/08/04 05:29:24;;;;;;;3.87;3.20;;;;;;;17.34;100.00;100786.38;6101232;29;20232;-66
2023/08/04 05:32:46;;;;;;;6.50;2.90;;;;;;;17.55;100.00;100796.63;6110566;29;20329;-68
2023/08/04 05:36:09;;;;;;;3.78;2.53;;;;;;;17.50;100.00;100797.19;6119066;29;20240;-66
2023/08/04 05:39:30;;;;;;;7.57;3.63;;;;;;;17.83;100.00;100799.63;6107420;29;20236;-65
2023/08/04 05:42:51;;;;;;;3.03;2.67;;;;;;;17.85;100.00;100797.56;6117582;28;20525;-66
2023/08/04 05:46:12;;;;;;;4.82;2.58;;;;;;;17.50;100.00;100794.44;6120440;29;20318;-64
2023/08/04 05:49:33;;;;;;;2.75;2.15;;;;;;;17.49;100.00;100800.06;6102954;29;20216;-66
2023/08/04 05:52:56;;;;;;;5.43;2.28;;;;;;;17.49;100.00;100809.13;6106474;29;20243;-66
2023/08/04 05:56:17;;;;;;;9.82;3.45;;;;;;;17.52;100.00;100810.66;6101079;29;20239;-67
2023/08/04 05:59:38;;;;;;;2.47;2.25;;;;;;;17.72;100.00;100817.28;6107569;29;20236;-67
2023/08/04 06:02:58;;;;;;;2.78;2.15;;;;;;;17.67;100.00;100819.69;6106161;29;20594;-67
2023/08/04 06:06:20;;;;;;;6.80;2.58;;;;;;;17.83;100.00;100819.56;6119856;28;20228;-66
2023/08/04 06:09:42;;;;;;;4.50;2.25;;;;;;;18.02;100.00;100826.38;6099627;29;20236;-66
2023/08/04 06:13:04;;;;;;;2.60;2.40;;;;;;;18.05;100.00;100821.41;6097333;29;20236;-67
2023/08/04 06:16:25;;;;;;;2.72;2.10;;;;;;;18.18;99.90;100826.22;6111302;29;20309;-67
2023/08/04 06:19:48;;;;;;;3.42;2.75;;;;;;;18.36;99.22;100833.00;6107253;29;20330;-66
2023/08/04 06:23:09;;;;;;;3.33;2.17;;;;;;;18.40;98.46;100835.38;6102678;28;20240;-66
2023/08/04 06:26:31;;;;;;;2.85;1.90;;;;;;;18.33;98.31;100840.75;6098783;29;20740;-66
2023/08/04 06:29:51;;;;;;;7.55;2.80;;;;;;;18.39;97.47;100850.91;6103113;29;20263;-65
2023/08/04 06:33:12;;;;;;;2.58;1.85;;;;;;;17.95;97.62;100848.09;6103892;28;20235;-66
2023/08/04 06:36:34;;;;;;;3.42;1.67;;;;;;;17.83;97.84;100852.31;6116067;28;20250;-66
2023/08/04 06:39:54;;;;;;;4.05;2.10;;;;;;;17.80;98.37;100862.72;6097330;28;20311;-65
2023/08/04 06:43:17;;;;;;;1.50;1.40;;;;;;;18.05;98.48;100862.31;6101948;29;20241;-65
2023/08/04 06:46:37;;;;;;;4.35;3.40;;;;;;;18.16;98.06;100869.22;6116630;29;20767;-66
2023/08/04 06:49:59;;;;;;;5.95;1.65;;;;;;;18.09;98.00;100877.28;6098603;29;20259;-66
2023/08/04 06:53:19;;;;;;;2.30;1.60;;;;;;;18.21;97.96;100872.25;6106888;29;20288;-66
2023/08/04 06:56:40;;;;;;;2.15;1.75;;;;;;;18.33;97.75;100876.22;6118167;28;20243;-67
2023/08/04 07:00:04;;;;;;;4.05;1.77;;;;;;;18.54;97.11;100870.91;6096690;29;20252;-65
2023/08/04 07:03:25;;;;;;;2.00;1.67;;;;;;;18.64;96.33;100879.66;6101659;29;20236;-67
2023/08/04 07:06:46;;;;;;;2.28;1.90;;;;;;;18.60;95.92;100881.09;6112613;29;20609;-66
2023/08/04 07:10:08;;;;;;;4.93;2.08;;;;;;;18.71;95.61;100888.78;6101322;29;20283;-67
2023/08/04 07:13:29;;;;;;;2.90;1.75;;;;;;;18.66;94.78;100890.41;6101197;28;20360;-67
2023/08/04 07:16:52;;;;;;;1.67;1.58;;;;;;;18.66;94.53;100893.13;6109840;29;20231;-67
2023/08/04 07:20:12;;;;;;;3.97;1.65;;;;;;;18.66;95.22;100893.13;6103239;29;20228;-67
2023/08/04 07:23:33;;;;;;;4.03;2.13;;;;;;;18.89;94.64;100899.34;6105304;29;20228;-67
2023/08/04 07:26:54;;;;;;;4.10;1.95;;;;;;;18.84;93.92;100896.31;6114540;28;20834;-66
2023/08/04 07:30:16;;;;;;;2.92;1.88;;;;;;;19.27;93.27;100900.91;6099198;29;20239;-66
2023/08/04 07:33:38;;;;;;;1.45;1.35;;;;;;;19.19;92.14;100909.22;6116735;28;20601;-66
2023/08/04 07:36:59;;;;;;;4.55;1.98;;;;;;;19.50;90.64;100915.31;6110945;29;20243;-66
2023/08/04 07:40:20;;;;;;;2.70;1.67;;;;;;;18.92;90.70;100921.66;6105596;29;20232;-65
2023/08/04 07:43:41;;;;;;;1.55;1.40;;;;;;;18.80;91.96;100916.84;6107477;28;20247;-66
2023/08/04 07:47:02;;;;;;;5.57;2.10;;;;;;;18.73;91.87;100922.22;6101955;28;20261;-65
2023/08/04 07:50:24;;;;;;;4.40;2.22;;;;;;;19.48;90.67;100917.38;6090462;29;20554;-65
2023/08/04 07:53:45;;;;;;;1.30;1.20;;;;;;;19.48;89.60;100922.84;6093564;29;20233;-66
2023/08/04 07:57:07;;;;;;;2.40;1.90;;;;;;;19.57;89.33;100926.28;6111269;29;20247;-66
2023/08/04 08:00:28;;;;;;;3.33;1.88;;;;;;;19.47;88.54;100923.03;6091107;28;20604;-65
2023/08/04 08:03:49;;;;;;;1.42;1.05;;;;;;;19.48;88.32;100922.84;6105977;28;20247;-67
2023/08/04 08:07:11;;;;;;;2.35;1.20;;;;;;;19.21;87.99;100926.28;6112769;29;20228;-66
2023/08/04 08:10:32;;;;;;;1.38;1.25;;;;;;;19.40;88.54;100928.41;6098463;29;20232;-66
2023/08/04 08:13:53;;;;;;;1.63;0.93;;;;;;;19.84;86.74;100931.88;6107857;29;20236;-66
2023/08/04 08:17:14;;;;;;;1.55;1.05;;;;;;;19.73;86.57;100937.84;6111918;29;20602;-66
2023/08/04 08:20:35;;;;;;;2.42;1.42;;;;;;;19.60;86.71;100942.34;6113826;28;20437;-66
2023/08/04 08:23:57;;;;;;;3.55;1.50;;;;;;;19.53;86.43;100944.13;6103624;29;20236;-65
2023/08/04 08:27:18;;;;;;;2.90;1.50;;;;;;;19.35;87.03;100957.38;6107374;29;20251;-66
2023/08/04 08:30:41;;;;;;;1.50;1.10;;;;;;;18.86;87.56;100951.63;6117901;28;20231;-66
2023/08/04 08:34:02;;;;;;;3.35;1.63;;;;;;;18.93;88.07;100955.31;6090753;29;20239;-65
2023/08/04 08:37:23;;;;;;;1.60;1.10;;;;;;;19.08;88.71;100967.09;6114672;28;20234;-67
2023/08/04 08:40:47;;;;;;;3.38;1.83;;;;;;;18.59;90.20;100976.81;6121725;28;20330;-66
2023/08/04 08:44:10;;;;;;;1.77;1.17;;;;;;;18.67;93.02;100983.06;6108593;28;20243;-66
2023/08/04 08:47:35;;;;;;;1.13;1.08;;;;;;;17.94;96.84;100982.78;6095338;29;20232;-66
2023/08/04 08:51:00;;;;;;;2.90;1.38;;;;;;;17.95;99.91;100981.78;6116011;29;20232;-65
2023/08/04 08:54:21;;;;;;;1.10;0.93;;;;;;;17.82;100.00;100997.88;6103702;29;20326;-66
2023/08/04 08:57:44;;;;;;;2.42;1.50;;;;;;;18.27;100.00;100999.78;6115679;28;20235;-66
2023/08/04 09:01:04;;;;;;;0.88;0.80;;;;;;;17.69;100.00;100996.78;6113582;29;20240;-66
2023/08/04 09:04:26;;;;;;;3.92;1.58;;;;;;;18.05;100.00;100992.44;6108953;29;20223;-66
2023/08/04 09:07:49;;;;;;;2.30;1.42;;;;;;;18.40;100.00;100997.28;6101280;29;20263;-66
2023/08/04 09:11:10;;;;;;;1.20;1.17;;;;;;;18.33;99.71;100988.13;6110212;28;20677;-66
2023/08/04 09:14:50;;;;;;;1.70;0.95;;;;;;;19.00;97.90;101006.28;6107240;29;20249;-67
2023/08/04 09:18:25;;;;;;;1.83;0.88;;;;;;;19.12;94.99;100998.47;6108931;28;20244;-67
2023/08/04 09:21:46;;;;;;;1.85;1.27;;;;;;;19.93;93.14;101004.59;6118707;29;20236;-67
2023/08/04 09:25:07;;;;;;;1.05;0.95;;;;;;;19.63;91.65;101008.44;6113931;28;20235;-66
2023/08/04 09:28:28;;;;;;;1.02;0.82;;;;;;;19.77;91.02;101021.25;6102165;28;20236;-66
2023/08/04 09:31:50;;;;;;;1.45;1.30;;;;;;;20.41;88.70;101021.34;6118711;28;20243;-66
2023/08/04 09:35:12;;;;;;;2.53;0.88;;;;;;;20.37;87.39;101009.06;6097975;29;20241;-66
2023/08/04 09:38:33;;;;;;;1.83;0.52;;;;;;;20.33;84.71;101025.06;6088966;29;20232;-67
2023/08/04 09:41:54;;;;;;;0.98;0.90;;;;;;;20.39;84.19;101015.19;6118861;29;20614;-66
2023/08/04 09:45:16;;;;;;;2.95;1.77;;;;;;;20.35;83.36;101017.50;6089120;28;20504;-67
2023/08/04 09:48:39;;;;;;;4.07;1.30;;;;;;;20.53;83.19;101019.75;6117724;28;20726;-67
2023/08/04 09:51:59;;;;;;;1.63;1.20;;;;;;;20.28;82.24;101018.47;6112553;29;21022;-66
2023/08/04 09:55:20;;;;;;;1.10;1.00;;;;;;;20.87;80.49;101016.25;6104020;29;20262;-67
2023/08/04 09:58:42;;;;;;;2.28;1.00;;;;;;;21.04;79.13;101017.66;6113354;29;20232;-67
2023/08/04 10:02:04;;;;;;;1.52;1.45;;;;;;;21.44;77.87;101020.44;6112747;28;20326;-67
2023/08/04 10:05:26;;;;;;;1.63;1.52;;;;;;;21.11;78.98;101026.81;6108171;29;20236;-67
2023/08/04 10:08:49;;;;;;;1.98;1.00;;;;;;;21.03;79.33;101024.19;6104251;29;20920;-66
2023/08/04 10:12:12;;;;;;;1.35;1.25;;;;;;;20.45;81.10;101033.59;6111524;28;20232;-67
2023/08/04 10:15:33;;;;;;;1.75;1.38;;;;;;;20.20;82.21;101041.34;6104511;29;20228;-67
2023/08/04 10:18:55;;;;;;;1.40;1.15;;;;;;;19.82;85.55;101058.97;6099215;29;20625;-67
2023/08/04 10:22:18;;;;;;;2.05;0.80;;;;;;;19.40;89.18;101058.84;6115953;29;21913;-67
2023/08/04 10:25:51;;;;;;;0.70;0.70;;;;;;;19.71;88.76;101060.31;6105290;29;20224;-67
2023/08/04 10:29:12;;;;;;;0.88;0.70;;;;;;;20.33;87.23;101054.34;6103709;29;20609;-67
2023/08/04 10:32:37;;;;;;;1.90;0.90;;;;;;;20.58;84.98;101047.41;6116044;29;20606;-68
2023/08/04 10:36:07;;;;;;;1.30;1.05;;;;;;;20.53;84.66;101055.38;6087573;28;20639;-67
2023/08/04 10:39:32;;;;;;;2.63;1.45;;;;;;;21.21;83.12;101063.78;6096026;29;20361;-66
2023/08/04 10:43:03;;;;;;;1.10;1.00;;;;;;;21.81;79.12;101053.97;6100458;29;20232;-67
2023/08/04 10:46:25;;;;;;;1.20;1.00;;;;;;;21.76;76.46;101053.75;6112740;28;20598;-67
2023/08/04 10:49:46;;;;;;;1.50;1.02;;;;;;;21.77;75.39;101052.69;6107162;29;20232;-67
2023/08/04 10:53:06;;;;;;;0.70;0.70;;;;;;;22.38;74.81;101050.81;6106702;28;20267;-68
2023/08/04 10:56:29;;;;;;;1.88;1.00;;;;;;;21.63;73.71;101050.94;6114893;28;20236;-66
2023/08/04 10:59:50;;;;;;;2.00;0.88;;;;;;;21.70;74.53;101051.81;6111571;28;20601;-67
2023/08/04 11:03:19;;;;;;;1.15;1.05;;;;;;;22.02;73.06;101048.38;6099541;29;20338;-65
2023/08/04 11:06:39;;;;;;;1.67;1.08;;;;;;;23.12;69.60;101048.72;6115157;29;20318;-67
2023/08/04 11:10:04;;;;;;;1.80;1.55;;;;;;;23.44;68.38;101048.72;6105122;29;20685;-67
2023/08/04 11:13:26;;;;;;;2.85;1.23;;;;;;;23.24;67.13;101045.13;6099298;29;20235;-67
2023/08/04 11:16:49;;;;;;;1.40;0.80;;;;;;;23.73;64.43;101047.34;6111499;29;20618;-66
2023/08/04 11:20:12;;;;;;;3.30;1.30;;;;;;;23.35;66.05;101044.50;6102807;29;20243;-66
2023/08/04 11:23:33;;;;;;;5.25;1.50;;;;;;;22.79;67.44;101043.25;6113578;28;20227;-68
2023/08/04 11:26:55;;;;;;;2.05;1.23;;;;;;;22.81;66.61;101038.41;6112100;28;20232;-67
2023/08/04 11:30:18;;;;;;;1.50;1.00;;;;;;;23.34;65.94;101045.56;6072179;29;20236;-66
2023/08/04 11:33:44;;;;;;;0.73;0.60;;;;;;;21.27;68.49;101053.91;6097583;29;20282;-66
2023/08/04 11:37:05;;;;;;;1.15;1.02;;;;;;;22.24;68.16;101042.53;6106600;29;20553;-67
2023/08/04 11:40:27;;;;;;;3.60;1.48;;;;;;;21.09;69.63;101061.81;6097109;29;20235;-66
2023/08/04 11:43:48;;;;;;;1.95;1.50;;;;;;;21.52;70.61;101067.97;6101565;29;20233;-67
2023/08/04 11:47:12;;;;;;;1.15;0.80;;;;;;;21.94;69.55;101063.16;6112859;29;20231;-66
2023/08/04 11:50:33;;;;;;;3.50;1.48;;;;;;;22.14;69.08;101065.94;6085482;29;21045;-67
2023/08/04 11:53:54;;;;;;;2.15;1.05;;;;;;;22.30;68.13;101056.50;6107982;29;20251;-67
2023/08/04 11:57:18;;;;;;;2.95;1.35;;;;;;;22.15;67.81;101062.16;6117496;29;20232;-67
2023/08/04 12:00:40;;;;;;;1.27;1.02;;;;;;;23.22;65.88;101050.00;6097640;29;20287;-67
2023/08/04 12:04:02;;;;;;;1.33;1.23;;;;;;;22.31;68.42;101060.94;6098493;29;20232;-65
2023/08/04 12:07:28;;;;;;;1.33;1.20;;;;;;;23.13;66.59;101055.94;6114640;28;20232;-67
2023/08/04 12:11:01;;;;;;;1.42;0.93;;;;;;;22.47;68.54;101063.28;6115363;29;20326;-65
2023/08/04 12:14:23;;;;;;;1.60;0.88;;;;;;;22.14;69.82;101075.06;6112370;28;20311;-67
2023/08/04 12:17:44;;;;;;;1.52;1.27;;;;;;;21.55;71.98;101076.63;6115365;29;20232;-68
2023/08/04 12:21:07;;;;;;;1.63;1.35;;;;;;;21.69;72.38;101091.28;6105016;29;20235;-67
2023/08/04 12:24:29;;;;;;;4.93;1.50;;;;;;;22.21;71.95;101078.69;6108165;28;20235;-67
2023/08/04 12:27:50;;;;;;;1.98;1.00;;;;;;;21.72;72.50;101082.63;6101224;29;20244;-67
2023/08/04 12:31:11;;;;;;;1.77;0.90;;;;;;;21.36;74.14;101080.97;6114826;29;20231;-67
2023/08/04 12:34:32;;;;;;;3.47;1.45;;;;;;;21.05;75.36;101088.75;6075469;29;20562;-66
2023/08/04 12:37:54;;;;;;;3.58;1.42;;;;;;;22.45;74.24;101087.38;6108312;29;20576;-67
2023/08/04 12:41:15;;;;;;;1.05;0.85;;;;;;;21.94;72.87;101087.88;6111148;29;20333;-67
2023/08/04 12:44:36;;;;;;;1.20;1.10;;;;;;;21.36;73.33;101089.19;6100170;29;20228;-66
2023/08/04 12:47:56;;;;;;;2.35;0.73;;;;;;;21.23;74.16;101097.34;6105663;28;20236;-67
2023/08/04 12:51:17;;;;;;;1.42;1.20;;;;;;;21.46;75.53;101091.59;6118409;29;20235;-67
2023/08/04 12:54:39;;;;;;;2.08;1.17;;;;;;;21.77;74.97;101102.09;6108021;29;21213;-67
2023/08/04 12:58:00;;;;;;;1.08;1.02;;;;;;;22.04;74.21;101102.06;6107841;28;20503;-68
2023/08/04 13:01:21;;;;;;;2.17;1.38;;;;;;;22.04;72.39;101102.06;6119011;29;20239;-67
2023/08/04 13:04:41;;;;;;;2.28;1.10;;;;;;;22.65;71.93;101096.56;6101281;29;20235;-67
2023/08/04 13:08:02;;;;;;;1.95;1.27;;;;;;;23.36;69.16;101105.91;6107789;28;20236;-66
2023/08/04 13:11:25;;;;;;;4.20;1.30;;;;;;;25.60;62.11;101109.94;6116696;28;20602;-67
2023/08/04 13:14:46;;;;;;;0.93;0.80;;;;;;;29.36;52.04;101105.47;6098146;29;20759;-67
2023/08/04 13:18:06;;;;;;;2.40;1.67;;;;;;;29.74;49.59;101102.75;6102926;28;20255;-66
2023/08/04 13:21:27;;;;;;;2.38;1.45;;;;;;;29.41;47.86;101100.88;6112520;28;20247;-68
2023/08/04 13:24:49;;;;;;;3.47;1.23;;;;;;;25.92;53.46;101106.81;6101241;29;20239;-67
2023/08/04 13:28:13;;;;;;;4.93;1.10;;;;;;;24.48;58.56;101107.22;6102734;29;20249;-68
2023/08/04 13:31:34;;;;;;;1.52;1.13;;;;;;;23.89;62.19;101103.84;6115754;28;20269;-67
2023/08/04 13:34:55;;;;;;;1.60;1.40;;;;;;;22.88;63.01;101108.00;6111666;28;20232;-67
2023/08/04 13:38:15;;;;;;;3.08;1.17;;;;;;;22.61;63.83;101109.03;6110981;29;20326;-67
2023/08/04 13:41:36;;;;;;;1.83;1.15;;;;;;;22.74;63.12;101109.88;6111851;29;20259;-67
2023/08/04 13:44:59;;;;;;;1.35;1.10;;;;;;;23.06;61.94;101110.97;6101183;29;20248;-68
2023/08/04 13:48:19;;;;;;;2.15;1.55;;;;;;;22.80;61.77;101109.03;6107957;28;20235;-67
2023/08/04 13:51:40;;;;;;;1.98;0.93;;;;;;;23.46;60.57;101114.56;6116375;29;20231;-67
2023/08/04 13:55:01;;;;;;;1.90;1.70;;;;;;;23.21;62.35;101114.34;6085565;29;20227;-67
2023/08/04 13:58:22;;;;;;;2.22;1.33;;;;;;;22.47;65.11;101129.22;6110309;28;20232;-66
2023/08/04 14:01:44;;;;;;;2.15;1.45;;;;;;;25.83;58.26;101119.25;6114626;28;20867;-67
2023/08/04 14:05:06;;;;;;;2.55;1.05;;;;;;;28.29;52.31;101118.47;6104150;29;20275;-65
2023/08/04 14:08:28;;;;;;;1.02;1.00;;;;;;;28.36;49.67;101122.81;6106793;29;20243;-66
2023/08/04 14:11:48;;;;;;;2.47;1.35;;;;;;;27.05;50.28;101127.19;6115654;29;20319;-67
2023/08/04 14:15:10;;;;;;;7.35;2.20;;;;;;;27.23;49.91;101127.09;6101905;28;20248;-68
2023/08/04 14:18:32;;;;;;;4.32;2.85;;;;;;;25.65;52.31;101149.63;6105153;29;20228;-66
2023/08/04 14:21:52;;;;;;;1.70;1.48;;;;;;;24.20;55.78;101142.56;6118126;29;20240;-65
2023/08/04 14:25:13;;;;;;;3.40;2.10;;;;;;;24.58;57.72;101148.94;6103667;29;20562;-67
2023/08/04 14:28:34;;;;;;;4.18;1.48;;;;;;;24.13;58.05;101141.72;6106181;29;20614;-67
2023/08/04 14:31:55;;;;;;;5.30;2.30;;;;;;;23.78;59.74;101143.94;6112623;29;20255;-67
2023/08/04 14:35:17;;;;;;;9.18;4.22;;;;;;;23.86;60.11;101151.13;6087587;29;20236;-67
2023/08/04 14:38:38;;;;;;;3.72;2.10;;;;;;;25.07;58.53;101151.81;6104723;29;20236;-67
2023/08/04 14:42:00;;;;;;;3.13;2.80;;;;;;;25.35;57.67;101148.59;6108045;28;20240;-67
2023/08/04 14:45:20;;;;;;;4.20;1.98;;;;;;;24.67;59.57;101152.28;6101382;29;20232;-67
2023/08/04 14:48:42;;;;;;;2.13;1.20;;;;;;;24.89;58.31;101153.63;6104990;29;20228;-66
2023/08/04 14:52:05;;;;;;;4.35;1.33;;;;;;;24.21;56.86;101145.09;6117672;29;20236;-67
2023/08/04 14:55:25;;;;;;;1.30;1.10;;;;;;;25.21;56.70;101160.84;6109925;29;20232;-66
2023/08/04 14:58:46;;;;;;;1.92;1.05;;;;;;;25.03;56.25;101161.59;6108256;29;20646;-67
2023/08/04 15:02:08;;;;;;;3.83;1.02;;;;;;;24.86;56.84;101160.47;6113860;29;20516;-67
2023/08/04 15:05:32;;;;;;;2.75;1.48;;;;;;;24.94;57.85;101153.81;6108916;29;20626;-66
2023/08/04 15:08:54;;;;;;;1.38;1.23;;;;;;;24.41;60.16;101158.75;6113883;28;20264;-68
2023/08/04 15:12:15;;;;;;;1.73;1.17;;;;;;;25.44;59.48;101151.94;6109585;29;20744;-67
2023/08/04 15:15:35;;;;;;;1.35;0.80;;;;;;;24.50;58.80;101150.03;6104683;29;20244;-68
2023/08/04 15:18:56;;;;;;;2.65;1.10;;;;;;;24.91;57.72;101143.25;6102680;29;20224;-67
2023/08/04 15:22:17;;;;;;;2.40;1.02;;;;;;;24.97;57.18;101145.94;6116722;29;20244;-66
2023/08/04 15:25:39;;;;;;;0.93;0.82;;;;;;;24.56;56.46;101140.88;6093673;28;20343;-68
2023/08/04 15:29:00;;;;;;;2.17;1.10;;;;;;;23.97;58.34;101145.78;6100741;29;20568;-67
2023/08/04 15:32:21;;;;;;;1.08;0.98;;;;;;;24.29;59.52;101152.25;6118587;28;20235;-68
2023/08/04 15:35:42;;;;;;;4.68;0.90;;;;;;;23.84;57.82;101149.41;6101539;29;20322;-66